createdAt,value
2019-04-14T00:03:50.050Z,71
2019-04-14T00:09:21.213Z,72
2019-04-14T00:14:53.393Z,72
2019-04-14T00:20:24.983Z,73
2019-04-14T00:25:56.465Z,73
2019-04-14T00:31:28.534Z,73
2019-04-14T00:36:59.529Z,73
2019-04-14T00:42:31.978Z,73
2019-04-14T00:48:07.838Z,72
2019-04-14T00:53:34.442Z,72
2019-04-14T00:59:07.090Z,70
2019-04-14T01:04:38.271Z,73
2019-04-14T01:10:10.277Z,74
2019-04-14T01:15:50.948Z,70
2019-04-14T01:21:11.084Z,72
2019-04-14T01:26:42.096Z,73
2019-04-14T01:32:13.265Z,71
2019-04-14T01:37:44.206Z,73
2019-04-14T01:43:16.697Z,77
2019-04-14T01:48:47.589Z,74
2019-04-14T01:54:19.305Z,73
2019-04-14T01:59:50.980Z,72
2019-04-14T02:05:23.519Z,73
2019-04-14T02:10:54.449Z,72
2019-04-14T02:16:34.678Z,72
2019-04-14T02:21:58.424Z,74
2019-04-14T02:27:29.698Z,77
2019-04-14T02:33:31.691Z,79
2019-04-14T02:39:05.813Z,78
2019-04-14T02:44:30.044Z,80
2019-04-14T02:50:04.347Z,80
2019-04-14T02:55:29.432Z,77
2019-04-14T03:01:14.279Z,79
2019-04-14T03:06:32.885Z,81
2019-04-14T03:17:36.593Z,78
2019-04-14T03:39:56.940Z,84
2019-04-14T03:45:14.005Z,83
2019-04-14T03:50:44.119Z,82
2019-04-14T03:55:54.078Z,87
2019-04-14T04:01:19.324Z,89
2019-04-14T04:06:49.457Z,89
2019-04-14T04:12:20.355Z,89
2019-04-14T04:17:51.595Z,90
2019-04-14T04:23:21.197Z,89
2019-04-14T04:28:51.857Z,88
2019-04-14T04:34:22.700Z,83
2019-04-14T04:39:53.901Z,81
2019-04-14T04:45:23.529Z,78
2019-04-14T04:50:54.193Z,77
2019-04-14T04:56:25.428Z,78
2019-04-14T05:01:55.878Z,77
2019-04-14T05:07:25.668Z,81
2019-04-14T05:12:56.521Z,80
2019-04-14T05:18:26.910Z,81
2019-04-14T05:23:58.128Z,83
2019-04-14T05:29:28.309Z,86
2019-04-14T05:34:59.145Z,91
2019-04-14T05:40:30.028Z,91
2019-04-14T05:46:01.291Z,90
2019-04-14T05:51:32.511Z,91
2019-04-14T05:57:02.367Z,90
2019-04-14T06:02:33.567Z,88
2019-04-14T06:08:03.984Z,87
2019-04-14T06:13:34.952Z,86
2019-04-14T06:19:05.946Z,87
2019-04-14T06:24:37.725Z,89
2019-04-14T06:30:07.802Z,89
2019-04-14T06:35:38.802Z,88
2019-04-14T06:41:09.868Z,85
2019-04-14T06:46:41.090Z,86
2019-04-14T06:52:12.340Z,84
2019-04-14T06:57:43.545Z,83
2019-04-14T07:03:14.916Z,82
2019-04-14T07:08:46.264Z,82
2019-04-14T07:14:17.784Z,82
2019-04-14T07:20:01.211Z,82
2019-04-14T07:25:21.988Z,81
2019-04-14T07:30:54.340Z,80
2019-04-14T07:36:26.766Z,80
2019-04-14T07:41:59.170Z,81
2019-04-14T07:47:31.743Z,80
2019-04-14T07:53:04.344Z,78
2019-04-14T07:58:36.976Z,77
2019-04-14T08:04:09.605Z,76
2019-04-14T08:09:42.329Z,75
2019-04-14T08:15:16.686Z,77
2019-04-14T08:20:47.985Z,76
2019-04-14T08:26:20.465Z,74
2019-04-14T08:31:53.355Z,72
2019-04-14T08:37:30.413Z,73
2019-04-14T08:43:02.904Z,72
2019-04-14T08:48:35.634Z,74
2019-04-14T08:54:08.239Z,72
2019-04-14T08:59:40.528Z,74
2019-04-14T09:05:12.819Z,75
2019-04-14T09:10:45.159Z,75
2019-04-14T09:16:17.360Z,75
2019-04-14T09:21:49.583Z,74
2019-04-14T09:27:21.826Z,73
2019-04-14T09:32:54.102Z,72
2019-04-14T09:38:27.529Z,71
2019-04-14T09:43:58.798Z,72
2019-04-14T09:49:31.309Z,71
2019-04-14T09:55:04.031Z,70
2019-04-14T10:00:36.921Z,69
2019-04-14T10:06:09.718Z,71
2019-04-14T10:11:48.244Z,69
2019-04-14T10:17:15.253Z,67
2019-04-14T10:22:47.280Z,65
2019-04-14T10:28:20.308Z,65
2019-04-14T10:33:53.539Z,66
2019-04-14T10:39:26.470Z,67
2019-04-14T10:44:59.419Z,69
2019-04-14T10:50:32.063Z,69
2019-04-14T10:56:04.712Z,70
2019-04-14T11:01:37.355Z,72
2019-04-14T11:07:09.910Z,72
2019-04-14T11:12:42.500Z,73
2019-04-14T11:18:14.972Z,70
2019-04-14T11:23:47.532Z,74
2019-04-14T11:29:19.978Z,73
2019-04-14T11:34:52.300Z,73
2019-04-14T11:40:24.753Z,74
2019-04-14T11:45:56.967Z,75
2019-04-14T11:51:29.425Z,74
2019-04-14T11:57:01.981Z,74
2019-04-14T12:02:34.491Z,72
2019-04-14T12:08:07.151Z,73
2019-04-14T12:13:39.777Z,72
2019-04-14T12:19:12.377Z,73
2019-04-14T12:24:44.811Z,73
2019-04-14T12:30:18.029Z,74
2019-04-14T12:35:49.769Z,73
2019-04-14T12:41:22.281Z,74
2019-04-14T12:46:54.751Z,73
2019-04-14T12:52:27.160Z,74
2019-04-14T12:57:59.555Z,73
2019-04-14T13:03:31.912Z,73
2019-04-14T13:09:04.312Z,72
2019-04-14T13:14:36.657Z,72
2019-04-14T13:20:09.083Z,70
2019-04-14T13:25:41.655Z,71
2019-04-14T13:36:46.950Z,70
2019-04-14T13:42:19.466Z,72
2019-04-14T13:47:52.120Z,71
2019-04-14T13:53:24.838Z,70
2019-04-14T13:58:57.490Z,69
2019-04-14T14:04:30.082Z,70
2019-04-14T14:10:02.708Z,70
2019-04-14T14:15:35.136Z,71
2019-04-14T14:21:07.665Z,71
2019-04-14T14:26:40.090Z,72
2019-04-14T14:32:12.524Z,70
2019-04-14T14:37:44.920Z,72
2019-04-14T14:43:17.454Z,71
2019-04-14T14:48:49.714Z,73
2019-04-14T14:54:22.125Z,72
2019-04-14T14:59:54.620Z,72
2019-04-14T15:05:27.132Z,73
2019-04-14T15:10:59.772Z,72
2019-04-14T15:16:32.389Z,71
2019-04-14T15:22:04.980Z,71
2019-04-14T15:27:37.497Z,72
2019-04-14T15:33:10.059Z,72
2019-04-14T15:38:42.649Z,73
2019-04-14T15:44:15.106Z,73
2019-04-14T15:49:47.516Z,73
2019-04-14T15:55:19.938Z,72
2019-04-14T16:00:52.476Z,73
2019-04-14T16:06:24.808Z,74
2019-04-14T16:11:57.143Z,74
2019-04-14T16:17:29.471Z,74
2019-04-14T16:23:01.735Z,74
2019-04-14T16:28:33.965Z,75
2019-04-14T16:34:06.108Z,75
2019-04-14T16:39:38.329Z,76
2019-04-14T16:45:10.436Z,76
2019-04-14T16:50:42.462Z,76
2019-04-14T16:56:14.504Z,78
2019-04-14T17:01:46.615Z,76
2019-04-14T17:07:18.641Z,77
2019-04-14T17:12:51.818Z,78
2019-04-14T17:18:22.690Z,78
2019-04-14T17:23:54.694Z,78
2019-04-14T17:29:26.522Z,78
2019-04-14T17:34:58.484Z,78
2019-04-14T17:40:32.756Z,79
2019-04-14T17:46:02.507Z,78
2019-04-14T17:51:34.506Z,79
2019-04-14T17:57:06.494Z,79
2019-04-14T18:02:38.474Z,79
2019-04-14T18:08:10.178Z,79
2019-04-14T18:13:41.657Z,81
2019-04-14T18:19:13.477Z,81
2019-04-14T18:24:44.138Z,82
2019-04-14T18:30:16.146Z,82
2019-04-14T18:35:48.061Z,84
2019-04-14T18:41:20.029Z,85
2019-04-14T18:46:52.035Z,85
2019-04-14T18:52:24.103Z,86
2019-04-14T18:57:56.394Z,87
2019-04-14T19:03:27.879Z,87
2019-04-14T19:08:59.837Z,87
2019-04-14T19:14:31.815Z,89
2019-04-14T19:20:03.672Z,88
2019-04-14T19:25:36.440Z,89
2019-04-14T19:31:07.521Z,89
2019-04-14T19:36:39.423Z,89
2019-04-14T19:42:11.379Z,90
2019-04-14T19:47:43.366Z,89
2019-04-14T19:53:15.268Z,89
2019-04-14T19:58:47.181Z,89
2019-04-14T20:04:19.099Z,89
2019-04-14T20:09:51.015Z,90
2019-04-14T20:15:22.954Z,90
2019-04-14T20:20:54.767Z,90
2019-04-14T20:26:26.706Z,91
2019-04-14T20:31:58.612Z,91
2019-04-14T20:37:30.541Z,91
2019-04-14T20:43:02.538Z,92
2019-04-14T20:48:34.383Z,93
2019-04-14T20:54:06.373Z,92
2019-04-14T20:59:38.230Z,94
2019-04-14T21:05:10.164Z,94
2019-04-14T21:10:42.133Z,94
2019-04-14T21:16:13.850Z,94
2019-04-14T21:21:45.803Z,94
2019-04-14T21:27:17.640Z,94
2019-04-14T21:32:49.513Z,94
2019-04-14T21:38:21.440Z,94
2019-04-14T21:43:53.273Z,94
2019-04-14T21:49:25.076Z,94
2019-04-14T21:54:56.962Z,94
2019-04-14T22:00:28.855Z,94
2019-04-14T22:06:00.700Z,93
2019-04-14T22:11:32.561Z,94
2019-04-14T22:17:04.336Z,94
2019-04-14T22:22:36.008Z,93
2019-04-14T22:28:07.280Z,93
2019-04-14T22:33:38.675Z,93
2019-04-14T22:39:10.368Z,94
2019-04-14T22:44:41.968Z,94
2019-04-14T22:50:12.941Z,93
2019-04-14T22:55:43.811Z,93
2019-04-14T23:01:14.812Z,93
2019-04-14T23:06:45.683Z,93
2019-04-14T23:12:16.714Z,94
2019-04-14T23:17:47.651Z,94
2019-04-14T23:23:19.121Z,95
2019-04-14T23:28:50.909Z,95
2019-04-14T23:34:22.718Z,94
2019-04-14T23:39:53.990Z,94
2019-04-14T23:45:25.462Z,94
2019-04-14T23:50:57.245Z,94
2019-04-14T23:56:28.805Z,95
